createdAt,value
2019-01-05T00:00:42.949Z,16.70
2019-01-05T00:03:36.941Z,21.47
2019-01-05T00:06:26.443Z,19.63
2019-01-05T00:09:12.375Z,17.63
2019-01-05T00:12:00.439Z,21.17
2019-01-05T00:14:53.844Z,17.13
2019-01-05T00:17:43.570Z,23.13
2019-01-05T00:20:39.663Z,22.00
2019-01-05T00:23:47.791Z,24.23
2019-01-05T00:26:37.479Z,19.83
2019-01-05T00:29:27.735Z,19.33
2019-01-05T00:33:02.435Z,15.17
2019-01-05T00:36:11.718Z,23.73
2019-01-05T00:39:09.903Z,15.13
2019-01-05T00:41:56.403Z,23.27
2019-01-05T00:44:54.868Z,16.33
2019-01-05T00:47:42.464Z,19.73
2019-01-05T00:50:32.876Z,20.87
2019-01-05T00:53:35.740Z,18.63
2019-01-05T00:56:26.048Z,26.53
2019-01-05T00:59:16.240Z,20.33
2019-01-05T01:02:17.785Z,25.00
2019-01-05T01:05:20.159Z,17.30
2019-01-05T01:08:09.505Z,22.80
2019-01-05T01:10:57.352Z,20.70
2019-01-05T01:13:45.590Z,23.60
2019-01-05T01:16:46.486Z,22.77
2019-01-05T01:19:41.831Z,19.87
2019-01-05T01:22:30.108Z,19.37
2019-01-05T01:25:21.760Z,21.67
2019-01-05T01:28:10.381Z,20.80
2019-01-05T01:30:50.566Z,29.90
2019-01-05T01:33:35.294Z,29.23
2019-01-05T01:36:21.008Z,28.83
2019-01-05T01:39:12.146Z,18.87
2019-01-05T01:42:01.884Z,32.43
2019-01-05T01:44:55.346Z,28.10
2019-01-05T01:47:46.375Z,33.93
2019-01-05T01:50:38.929Z,29.60
2019-01-05T01:53:33.333Z,23.40
2019-01-05T01:56:28.800Z,25.80
2019-01-05T01:59:26.379Z,24.50
2019-01-05T02:02:11.332Z,26.53
2019-01-05T02:04:59.410Z,29.87
2019-01-05T02:07:50.356Z,29.10
2019-01-05T02:10:56.754Z,25.70
2019-01-05T02:13:51.009Z,29.70
2019-01-05T02:16:47.091Z,35.90
2019-01-05T02:19:51.443Z,31.77
2019-01-05T02:23:26.296Z,27.73
2019-01-05T02:26:59.494Z,21.07
2019-01-05T02:30:35.736Z,26.17
2019-01-05T02:34:11.959Z,24.63
2019-01-05T02:37:36.989Z,19.73
2019-01-05T02:41:05.956Z,21.03
2019-01-05T02:44:29.881Z,16.13
2019-01-05T02:47:59.210Z,16.87
2019-01-05T02:51:33.495Z,15.97
2019-01-05T02:54:53.616Z,13.23
2019-01-05T02:58:16.190Z,16.40
2019-01-05T03:01:47.977Z,13.10
2019-01-05T03:08:52.064Z,8.67
2019-01-05T03:12:17.752Z,7.53
2019-01-05T03:15:44.794Z,10.00
2019-01-05T03:19:25.298Z,10.53
2019-01-05T03:23:00.946Z,6.33
2019-01-05T03:26:43.750Z,6.70
2019-01-05T03:30:45.852Z,4.50
2019-01-05T03:34:24.316Z,5.07
2019-01-05T03:37:57.547Z,5.53
2019-01-05T03:41:13.204Z,6.33
2019-01-05T03:44:51.196Z,7.17
2019-01-05T03:48:40.147Z,8.47
2019-01-05T03:52:22.433Z,7.30
2019-01-05T03:55:57.999Z,13.03
2019-01-05T03:59:25.750Z,11.23
2019-01-05T04:02:42.389Z,7.57
2019-01-05T04:06:23.565Z,5.50
2019-01-05T04:09:49.436Z,4.50
2019-01-05T04:13:29.194Z,11.47
2019-01-05T04:17:14.086Z,3.43
2019-01-05T04:21:03.970Z,6.10
2019-01-05T04:24:32.208Z,3.43
2019-01-05T04:28:04.721Z,3.90
2019-01-05T04:31:50.849Z,3.80
2019-01-05T04:35:38.186Z,3.60
2019-01-05T04:39:00.166Z,2.37
2019-01-05T04:42:32.046Z,4.43
2019-01-05T04:46:02.226Z,2.87
2019-01-05T04:49:34.201Z,6.13
2019-01-05T04:53:18.092Z,2.70
2019-01-05T04:56:52.887Z,4.17
2019-01-05T05:00:32.508Z,2.37
2019-01-05T05:03:53.120Z,2.57
2019-01-05T05:07:24.441Z,1.03
2019-01-05T05:11:13.590Z,1.43
2019-01-05T05:14:35.576Z,0.60
2019-01-05T05:17:59.477Z,3.13
2019-01-05T05:21:23.420Z,1.47
2019-01-05T05:24:47.581Z,7.53
2019-01-05T05:28:25.859Z,1.00
2019-01-05T05:31:50.860Z,1.23
2019-01-05T05:35:17.792Z,4.90
2019-01-05T05:38:55.047Z,3.03
2019-01-05T05:42:24.845Z,7.17
2019-01-05T05:45:59.157Z,1.13
2019-01-05T05:49:42.971Z,3.03
2019-01-05T05:53:11.171Z,4.00
2019-01-05T05:56:58.780Z,3.90
2019-01-05T06:00:35.046Z,1.73
2019-01-05T06:04:18.155Z,1.20
2019-01-05T06:07:56.396Z,2.23
2019-01-05T06:11:54.321Z,2.97
2019-01-05T06:15:09.493Z,3.43
2019-01-05T06:18:30.337Z,4.47
2019-01-05T06:22:09.303Z,4.20
2019-01-05T06:25:56.457Z,7.73
2019-01-05T06:29:25.362Z,6.90
2019-01-05T06:32:53.501Z,8.67
2019-01-05T06:36:27.732Z,10.20
2019-01-05T06:40:22.168Z,16.93
2019-01-05T06:44:07.413Z,11.33
2019-01-05T06:47:51.807Z,11.63
2019-01-05T06:51:19.486Z,20.67
2019-01-05T06:55:12.105Z,19.37
2019-01-05T06:58:31.377Z,18.60
2019-01-05T07:02:10.850Z,12.43
2019-01-05T07:06:02.002Z,10.43
2019-01-05T07:09:26.235Z,14.70
2019-01-05T07:13:05.538Z,13.17
2019-01-05T07:16:32.952Z,13.70
2019-01-05T07:19:59.066Z,18.20
2019-01-05T07:23:53.723Z,14.97
2019-01-05T07:27:37.447Z,19.57
2019-01-05T07:31:08.446Z,11.07
2019-01-05T07:35:02.912Z,8.90
2019-01-05T07:38:30.183Z,14.00
2019-01-05T07:41:57.891Z,8.93
2019-01-05T07:45:21.726Z,11.83
2019-01-05T07:49:05.431Z,10.17
2019-01-05T07:52:31.081Z,10.77
2019-01-05T07:56:24.048Z,8.47
2019-01-05T08:00:12.137Z,14.20
2019-01-05T08:03:58.247Z,6.13
2019-01-05T08:07:53.023Z,10.67
2019-01-05T08:11:43.248Z,11.73
2019-01-05T08:15:56.026Z,10.27
2019-01-05T08:19:29.884Z,9.97
2019-01-05T08:23:24.307Z,14.20
2019-01-05T08:26:44.578Z,11.37
2019-01-05T08:30:06.583Z,14.37
2019-01-05T08:33:59.829Z,6.13
2019-01-05T08:37:35.536Z,12.53
2019-01-05T08:41:10.302Z,20.33
2019-01-05T08:44:54.525Z,13.80
2019-01-05T08:48:19.749Z,16.30
2019-01-05T08:51:32.743Z,15.47
2019-01-05T08:55:04.615Z,20.30
2019-01-05T08:58:30.523Z,18.47
2019-01-05T09:01:53.037Z,15.77
2019-01-05T09:05:21.249Z,14.67
2019-01-05T09:08:47.809Z,10.07
2019-01-05T09:12:18.985Z,17.27
2019-01-05T09:15:53.282Z,11.33
2019-01-05T09:19:22.618Z,9.93
2019-01-05T09:22:55.687Z,15.87
2019-01-05T09:26:26.714Z,10.73
2019-01-05T09:29:54.237Z,17.83
2019-01-05T09:33:31.447Z,14.57
2019-01-05T09:36:56.005Z,12.67
2019-01-05T09:40:31.264Z,20.57
2019-01-05T09:44:22.683Z,11.60
2019-01-05T09:48:03.976Z,7.73
2019-01-05T09:51:57.052Z,10.93
2019-01-05T09:55:25.313Z,14.13
2019-01-05T09:59:33.807Z,11.77
2019-01-05T10:03:05.522Z,13.70
2019-01-05T10:06:43.193Z,16.97
2019-01-05T10:10:03.472Z,11.20
2019-01-05T10:13:40.302Z,7.53
2019-01-05T10:17:31.094Z,11.43
2019-01-05T10:21:14.443Z,5.43
2019-01-05T10:25:00.515Z,20.07
2019-01-05T10:28:11.115Z,15.17
2019-01-05T10:31:49.509Z,7.97
2019-01-05T10:35:23.219Z,6.10
2019-01-05T10:38:45.791Z,7.40
2019-01-05T10:42:14.273Z,6.40
2019-01-05T10:45:39.469Z,10.33
2019-01-05T10:49:14.025Z,11.13
2019-01-05T10:53:02.194Z,8.57
2019-01-05T10:56:48.104Z,4.93
2019-01-05T11:00:16.933Z,12.60
2019-01-05T11:03:52.262Z,8.63
2019-01-05T11:07:05.178Z,9.27
2019-01-05T11:10:24.985Z,7.67
2019-01-05T11:13:53.968Z,4.57
2019-01-05T11:18:04.593Z,5.93
2019-01-05T11:21:47.835Z,7.43
2019-01-05T11:25:04.877Z,10.17
2019-01-05T11:28:33.074Z,4.90
2019-01-05T11:32:11.102Z,11.27
2019-01-05T11:35:37.029Z,10.67
2019-01-05T11:39:28.374Z,4.90
2019-01-05T11:43:01.821Z,5.03
2019-01-05T11:46:56.506Z,8.93
2019-01-05T11:50:07.463Z,8.17
2019-01-05T11:53:35.393Z,5.90
2019-01-05T11:57:25.755Z,4.33
2019-01-05T12:08:01.608Z,7.93
2019-01-05T12:11:38.880Z,7.67
2019-01-05T12:15:11.381Z,5.10
2019-01-05T12:51:06.164Z,4.93
2019-01-05T12:54:46.309Z,13.20
2019-01-05T12:58:34.209Z,8.07
2019-01-05T13:02:22.256Z,7.40
2019-01-05T13:05:44.704Z,6.37
2019-01-05T13:09:18.570Z,6.13
2019-01-05T13:12:44.955Z,7.57
2019-01-05T13:16:32.099Z,3.33
2019-01-05T13:20:02.935Z,9.00
2019-01-05T13:23:27.980Z,8.40
2019-01-05T13:27:05.894Z,4.50
2019-01-05T13:30:43.993Z,7.17
2019-01-05T13:34:27.444Z,6.23
2019-01-05T13:38:09.880Z,6.00
2019-01-05T13:41:44.511Z,4.57
2019-01-05T13:45:10.514Z,5.07
2019-01-05T13:48:40.460Z,3.70
2019-01-05T13:52:00.384Z,6.13
2019-01-05T13:54:58.919Z,5.80
2019-01-05T13:57:52.654Z,5.27
2019-01-05T14:00:51.570Z,5.93
2019-01-05T14:03:41.349Z,4.77
2019-01-05T14:06:49.399Z,8.43
2019-01-05T14:09:47.906Z,2.47
2019-01-05T14:12:36.291Z,8.00
2019-01-05T14:15:35.828Z,3.23
2019-01-05T14:18:31.093Z,8.00
2019-01-05T14:21:24.314Z,4.27
2019-01-05T14:24:12.400Z,5.80
2019-01-05T14:27:01.842Z,5.73
2019-01-05T14:29:53.929Z,8.90
2019-01-05T14:32:52.691Z,14.07
2019-01-05T14:35:48.205Z,3.83
2019-01-05T14:38:52.911Z,4.73
2019-01-05T14:41:48.176Z,7.03
2019-01-05T14:44:36.476Z,5.47
2019-01-05T14:47:28.715Z,5.17
2019-01-05T14:50:21.355Z,7.70
2019-01-05T14:53:23.869Z,6.07
2019-01-05T14:56:21.645Z,7.03
2019-01-05T14:59:20.922Z,8.37
2019-01-05T15:02:11.266Z,7.77
2019-01-05T15:04:58.926Z,7.37
2019-01-05T15:07:47.132Z,11.17
2019-01-05T15:10:39.515Z,7.90
2019-01-05T15:13:28.844Z,8.73
2019-01-05T15:16:24.137Z,11.57
2019-01-05T15:19:13.466Z,5.13
2019-01-05T15:22:02.353Z,6.73
2019-01-05T15:24:56.641Z,8.47
2019-01-05T15:27:51.747Z,7.57
2019-01-05T15:30:49.948Z,9.50
2019-01-05T15:33:39.451Z,8.23
2019-01-05T15:36:27.691Z,7.57
2019-01-05T15:39:29.168Z,10.93
2019-01-05T15:42:25.404Z,10.50
2019-01-05T15:45:25.235Z,12.50
2019-01-05T15:48:12.376Z,11.23
2019-01-05T15:51:07.582Z,12.30
2019-01-05T15:53:55.652Z,11.53
2019-01-05T15:56:50.936Z,18.33
2019-01-05T15:59:39.210Z,13.90
2019-01-05T16:02:22.007Z,12.47
2019-01-05T16:05:23.644Z,17.17
2019-01-05T16:08:11.674Z,14.90
2019-01-05T16:11:13.705Z,21.23
2019-01-05T16:14:05.881Z,13.73
2019-01-05T16:16:53.879Z,10.47
2019-01-05T16:19:40.847Z,13.33
2019-01-05T16:22:29.176Z,19.00
2019-01-05T16:25:25.775Z,19.30
2019-01-05T16:28:24.056Z,11.97
2019-01-05T16:31:12.255Z,15.03
2019-01-05T16:34:02.407Z,16.00
2019-01-05T16:36:50.439Z,14.40
2019-01-05T16:39:57.036Z,12.50
2019-01-05T16:42:40.321Z,9.73
2019-01-05T16:45:30.822Z,12.53
2019-01-05T16:48:26.466Z,16.17
2019-01-05T16:51:21.780Z,17.10
2019-01-05T16:54:10.908Z,16.00
2019-01-05T16:57:02.409Z,15.73
2019-01-05T17:00:04.401Z,19.60
2019-01-05T17:02:50.933Z,17.00
2019-01-05T17:05:46.235Z,13.33
2019-01-05T17:08:34.170Z,16.17
2019-01-05T17:11:38.606Z,17.03
2019-01-05T17:14:26.349Z,13.73
2019-01-05T17:17:37.581Z,18.40
2019-01-05T17:20:26.386Z,15.37
2019-01-05T17:23:30.741Z,12.83
2019-01-05T17:26:18.508Z,35.97
2019-01-05T17:29:01.525Z,20.17
2019-01-05T17:31:54.454Z,29.40
2019-01-05T17:34:43.865Z,24.00
2019-01-05T17:37:39.399Z,17.17
2019-01-05T17:40:44.055Z,18.30
2019-01-05T17:43:42.396Z,15.97
2019-01-05T17:46:37.842Z,17.77
2019-01-05T17:49:26.150Z,16.73
2019-01-05T17:52:15.552Z,17.90
2019-01-05T17:55:13.027Z,8.70
2019-01-05T17:58:16.523Z,16.10
2019-01-05T18:01:09.530Z,19.20
2019-01-05T18:03:57.680Z,15.37
2019-01-05T18:06:56.168Z,15.63
2019-01-05T18:09:42.034Z,36.10
2019-01-05T18:12:46.847Z,18.33
2019-01-05T18:15:42.012Z,17.90
2019-01-05T18:18:30.207Z,14.73
2019-01-05T18:21:19.755Z,14.50
2019-01-05T18:24:21.086Z,33.20
2019-01-05T18:27:09.789Z,14.40
2019-01-05T18:29:45.627Z,14.40
2019-01-05T18:32:50.996Z,16.30
2019-01-05T18:38:52.219Z,17.17
2019-01-05T18:41:49.896Z,17.23
2019-01-05T18:44:39.711Z,15.13
2019-01-05T18:47:32.289Z,17.70
2019-01-05T18:50:20.416Z,12.23
2019-01-05T18:53:27.914Z,24.90
2019-01-05T18:56:15.908Z,19.33
2019-01-05T18:59:10.037Z,12.97
2019-01-05T19:01:59.483Z,22.17
2019-01-05T19:04:58.003Z,18.60
2019-01-05T19:07:46.359Z,17.60
2019-01-05T19:10:49.510Z,10.63
2019-01-05T19:13:46.939Z,17.33
2019-01-05T19:16:45.630Z,14.50
2019-01-05T19:19:29.186Z,14.73
2019-01-05T19:22:24.523Z,12.37
2019-01-05T19:25:27.548Z,11.90
2019-01-05T19:28:21.001Z,16.03
2019-01-05T19:31:26.817Z,14.93
2019-01-05T19:34:22.158Z,17.80
2019-01-05T19:37:11.451Z,17.37
2019-01-05T19:40:06.194Z,9.03
2019-01-05T19:43:06.671Z,8.90
2019-01-05T19:45:50.952Z,13.20
2019-01-05T19:48:47.222Z,13.13
2019-01-05T19:51:41.513Z,16.63
2019-01-05T19:54:38.258Z,11.83
2019-01-05T19:57:27.209Z,10.47
2019-01-05T20:00:15.462Z,11.97
2019-01-05T20:03:11.376Z,11.13
2019-01-05T20:06:03.151Z,9.77
2019-01-05T20:08:52.590Z,8.50
2019-01-05T20:11:40.379Z,7.00
2019-01-05T20:14:33.831Z,9.57
2019-01-05T20:17:21.771Z,11.23
2019-01-05T20:20:23.804Z,9.97
2019-01-05T20:23:13.223Z,11.00
2019-01-05T20:26:02.933Z,18.93
2019-01-05T20:28:50.994Z,15.63
2019-01-05T20:31:55.570Z,12.87
2019-01-05T20:34:57.219Z,12.43
2019-01-05T20:37:50.547Z,12.67
2019-01-05T20:40:46.789Z,12.20
2019-01-05T20:43:35.279Z,13.77
2019-01-05T20:46:30.499Z,15.23
2019-01-05T20:49:26.089Z,15.43
2019-01-05T20:52:09.746Z,18.77
2019-01-05T20:55:14.818Z,16.40
2019-01-05T20:58:05.048Z,15.97
2019-01-05T21:00:58.801Z,14.63
2019-01-05T21:03:44.009Z,21.07
2019-01-05T21:06:32.150Z,18.70
2019-01-05T21:09:18.805Z,20.90
2019-01-05T21:12:13.398Z,15.37
2019-01-05T21:15:01.979Z,19.90
2019-01-05T21:17:58.678Z,15.93
2019-01-05T21:20:51.022Z,15.43
2019-01-05T21:23:53.517Z,16.83
2019-01-05T21:26:41.583Z,15.97
2019-01-05T21:29:43.725Z,11.63
2019-01-05T21:32:32.906Z,14.27
2019-01-05T21:35:19.396Z,14.40
2019-01-05T21:38:02.015Z,10.77
2019-01-05T21:40:50.632Z,10.90
2019-01-05T21:43:39.033Z,14.80
2019-01-05T21:46:27.874Z,11.93
2019-01-05T21:49:16.572Z,10.63
2019-01-05T21:52:08.772Z,11.20
2019-01-05T21:54:58.498Z,10.10
2019-01-05T21:57:52.798Z,8.87
2019-01-05T22:00:54.303Z,9.23
2019-01-05T22:03:49.384Z,11.17
2019-01-05T22:06:37.261Z,13.80
2019-01-05T22:09:36.915Z,11.80
2019-01-05T22:12:26.312Z,13.13
2019-01-05T22:15:33.910Z,11.40
2019-01-05T22:18:38.644Z,13.30
2019-01-05T22:21:43.037Z,14.03
2019-01-05T22:24:32.934Z,12.37
2019-01-05T22:27:21.184Z,11.23
2019-01-05T22:30:22.304Z,10.23
2019-01-05T22:33:20.992Z,13.93
2019-01-05T22:36:19.173Z,11.07
2019-01-05T22:39:11.209Z,11.63
2019-01-05T22:42:04.738Z,12.33
2019-01-05T22:44:57.049Z,14.17
2019-01-05T22:48:04.914Z,11.10
2019-01-05T22:51:03.612Z,12.50
2019-01-05T22:54:08.148Z,10.37
2019-01-05T22:57:03.194Z,11.13
2019-01-05T22:59:58.315Z,12.60
2019-01-05T23:02:47.674Z,9.70
2019-01-05T23:05:35.752Z,13.37
2019-01-05T23:08:27.875Z,11.60
2019-01-05T23:11:15.734Z,10.10
2019-01-05T23:14:04.413Z,13.77
2019-01-05T23:16:52.345Z,12.40
2019-01-05T23:19:50.458Z,16.50
2019-01-05T23:22:34.170Z,8.73
2019-01-05T23:25:38.813Z,10.67
2019-01-05T23:28:27.776Z,13.47
2019-01-05T23:31:15.755Z,12.57
2019-01-05T23:34:04.985Z,14.47
2019-01-05T23:37:00.547Z,13.47
2019-01-05T23:39:49.919Z,13.70
2019-01-05T23:42:44.974Z,12.70
2019-01-05T23:45:34.230Z,13.47
2019-01-05T23:48:26.770Z,12.93
2019-01-05T23:51:08.729Z,13.17
2019-01-05T23:53:58.143Z,12.60
2019-01-05T23:56:46.009Z,10.73
2019-01-05T23:59:44.513Z,12.50
